Time;durP1;ratioP1;P1;durP2;ratioP2;P2;SDS_P1;SDS_P2;PMS_P1;PMS_P2;Temp;Humidity;BMP_temperature;BMP_pressure;BME280_temperature;BME280_humidity;BME280_pressure;Samples;Min_cycle;Max_cycle;Signal;HPM_P1;HPM_P2
2023/04/19 00:01:23;;;;;;;12.40;7.90;;;;;;;7.54;78.35;102986.28;6060853;19;20447;-75
2023/04/19 00:03:29;;;;;;;13.80;7.97;;;;;;;7.55;78.64;102979.31;6054621;19;20502;-75
2023/04/19 00:05:34;;;;;;;13.98;7.80;;;;;;;7.56;78.52;102979.34;6055575;19;20385;-75
2023/04/19 00:07:40;;;;;;;15.32;7.80;;;;;;;7.54;78.28;102977.56;6054516;19;20264;-76
2023/04/19 00:09:46;;;;;;;14.43;9.23;;;;;;;7.52;78.60;102979.31;6057503;19;20042;-75
2023/04/19 00:11:52;;;;;;;15.70;8.10;;;;;;;7.51;78.66;102980.19;6055578;19;20447;-75
2023/04/19 00:13:57;;;;;;;14.68;8.15;;;;;;;7.56;78.32;102978.47;6052655;19;20296;-75
2023/04/19 00:16:05;;;;;;;14.45;7.93;;;;;;;7.64;78.45;102976.78;6049184;19;20402;-76
2023/04/19 00:18:11;;;;;;;16.45;8.82;;;;;;;7.70;78.17;102968.94;6050656;19;20046;-75
2023/04/19 00:20:16;;;;;;;13.85;7.80;;;;;;;7.75;78.03;102974.22;6051225;19;20424;-75
2023/04/19 00:22:22;;;;;;;13.30;8.25;;;;;;;7.78;77.71;102975.09;6055602;19;20530;-75
2023/04/19 00:24:30;;;;;;;14.15;8.93;;;;;;;7.75;77.78;102979.44;6051097;19;20010;-76
2023/04/19 00:26:35;;;;;;;14.40;7.68;;;;;;;7.77;77.89;102982.97;6053149;19;20018;-75
2023/04/19 00:28:42;;;;;;;12.90;7.82;;;;;;;7.74;78.25;102973.34;6052994;19;20007;-74
2023/04/19 00:30:48;;;;;;;14.27;7.63;;;;;;;7.80;77.88;102975.13;6051459;19;20257;-75
2023/04/19 00:32:55;;;;;;;14.77;8.52;;;;;;;7.79;77.93;102960.25;6057971;19;20023;-75
2023/04/19 00:35:00;;;;;;;15.30;8.48;;;;;;;7.77;78.36;102964.63;6059276;19;20011;-75
2023/04/19 00:37:06;;;;;;;15.32;8.02;;;;;;;7.84;77.95;102958.53;6058317;19;20068;-75
2023/04/19 00:39:12;;;;;;;12.85;8.18;;;;;;;7.82;78.13;102968.13;6054924;19;20018;-75
2023/04/19 00:41:17;;;;;;;13.50;8.65;;;;;;;7.81;78.43;102975.09;6055017;19;20356;-75
2023/04/19 00:43:23;;;;;;;14.40;8.70;;;;;;;7.77;78.20;102960.28;6056366;19;20010;-76
2023/04/19 00:45:28;;;;;;;15.50;8.10;;;;;;;7.77;78.35;102962.03;6057594;19;20531;-75
2023/04/19 00:47:33;;;;;;;16.38;8.52;;;;;;;7.88;78.17;102957.72;6057014;19;20259;-76
2023/04/19 00:49:42;;;;;;;15.05;8.90;;;;;;;7.83;78.23;102962.91;6052347;19;20018;-75
2023/04/19 00:51:48;;;;;;;15.82;8.93;;;;;;;7.85;78.30;102955.06;6052548;19;20010;-75
2023/04/19 00:53:54;;;;;;;14.63;8.35;;;;;;;7.86;78.54;102962.91;6047612;19;20495;-76
2023/04/19 00:56:04;;;;;;;15.07;8.52;;;;;;;7.85;78.38;102961.19;6049987;19;20302;-76
2023/04/19 00:58:10;;;;;;;14.68;7.80;;;;;;;7.89;78.54;102962.06;6052099;19;20657;-76
2023/04/19 01:00:16;;;;;;;13.45;8.82;;;;;;;7.88;78.77;102960.31;6049265;19;20470;-75
2023/04/19 01:02:24;;;;;;;12.63;7.68;;;;;;;7.94;78.83;102954.25;6049211;19;20405;-76
2023/04/19 01:04:29;;;;;;;14.05;7.85;;;;;;;7.95;78.62;102955.97;6052161;19;20525;-75
2023/04/19 01:06:38;;;;;;;16.98;8.73;;;;;;;8.00;78.64;102957.75;6051933;19;20082;-74
2023/04/19 01:08:46;;;;;;;15.90;9.15;;;;;;;8.05;78.94;102955.16;6050694;19;20413;-76
2023/04/19 01:10:53;;;;;;;16.48;9.13;;;;;;;8.06;78.75;102952.56;6049597;19;20414;-75
2023/04/19 01:12:58;;;;;;;15.55;8.38;;;;;;;8.17;78.85;102956.97;6057667;19;20019;-75
2023/04/19 01:15:03;;;;;;;16.83;8.65;;;;;;;8.18;78.84;102946.47;6061923;19;20291;-76
2023/04/19 01:17:10;;;;;;;18.20;9.93;;;;;;;8.36;78.80;102949.13;6065602;19;20015;-75
2023/04/19 01:19:17;;;;;;;17.52;9.50;;;;;;;8.46;78.47;102942.22;6064138;19;20010;-75
2023/04/19 01:21:28;;;;;;;16.50;9.32;;;;;;;8.48;78.21;102947.47;6062084;19;20490;-75
2023/04/19 01:23:38;;;;;;;13.82;8.15;;;;;;;8.49;78.26;102944.84;6065282;19;20086;-75
2023/04/19 01:25:43;;;;;;;17.98;8.82;;;;;;;8.55;78.57;102938.72;6068169;19;20011;-75
2023/04/19 01:27:48;;;;;;;18.88;9.63;;;;;;;8.59;78.24;102939.63;6068675;19;20804;-76
2023/04/19 01:29:53;;;;;;;16.30;9.82;;;;;;;8.68;78.28;102939.63;6060086;19;20840;-75
2023/04/19 01:31:58;;;;;;;17.00;9.60;;;;;;;8.66;78.16;102937.03;6059376;19;20018;-75
2023/04/19 01:34:04;;;;;;;20.88;10.65;;;;;;;8.71;78.26;102934.38;6063145;19;20034;-75
2023/04/19 01:36:11;;;;;;;21.10;10.00;;;;;;;8.77;77.85;102935.28;6061453;19;20580;-75
2023/04/19 01:38:17;;;;;;;17.65;10.23;;;;;;;8.86;77.53;102938.78;6062351;19;20011;-75
2023/04/19 01:40:27;;;;;;;20.27;10.18;;;;;;;8.87;77.72;102935.25;6064039;19;20132;-75
2023/04/19 01:42:32;;;;;;;19.42;10.10;;;;;;;8.93;77.57;102932.66;6060154;19;20222;-76
2023/04/19 01:44:37;;;;;;;16.48;9.68;;;;;;;8.91;77.68;102944.91;6062857;19;20034;-75
2023/04/19 01:46:42;;;;;;;20.85;10.05;;;;;;;8.83;77.94;102939.66;6066638;19;20017;-76
2023/04/19 01:48:47;;;;;;;16.35;9.15;;;;;;;8.70;78.00;102941.38;6062895;19;20018;-75
2023/04/19 01:50:53;;;;;;;16.35;9.02;;;;;;;8.55;78.24;102936.09;6068313;19;20578;-75
2023/04/19 01:52:57;;;;;;;16.80;9.25;;;;;;;8.41;78.47;102937.84;6064855;19;20272;-75
2023/04/19 01:55:03;;;;;;;16.92;9.02;;;;;;;8.22;78.96;102937.75;6064504;19;20264;-76
2023/04/19 01:57:11;;;;;;;17.15;8.88;;;;;;;8.16;79.15;102940.34;6063173;19;20053;-76
2023/04/19 01:59:18;;;;;;;16.73;8.88;;;;;;;8.04;79.53;102941.19;6060951;19;20011;-77
2023/04/19 02:01:23;;;;;;;17.45;8.93;;;;;;;7.99;79.62;102939.41;6062395;19;20042;-76
2023/04/19 02:03:29;;;;;;;15.25;9.23;;;;;;;7.88;80.18;102940.25;6074617;19;20670;-70
2023/04/19 02:05:34;;;;;;;14.50;9.13;;;;;;;7.81;80.32;102941.06;6060808;19;20335;-77
2023/04/19 02:07:40;;;;;;;17.98;9.82;;;;;;;7.76;80.57;102937.56;6056042;19;20614;-75
2023/04/19 02:09:45;;;;;;;18.10;9.25;;;;;;;7.74;80.54;102941.94;6056287;19;20006;-76
2023/04/19 02:11:52;;;;;;;17.42;8.57;;;;;;;7.69;80.61;102928.81;6060079;19;20007;-75
2023/04/19 02:14:00;;;;;;;18.58;9.90;;;;;;;7.66;80.68;102933.16;6060992;19;21238;-77
2023/04/19 02:16:05;;;;;;;15.75;8.48;;;;;;;7.68;81.05;102932.28;6061185;19;20014;-75
2023/04/19 02:18:12;;;;;;;21.02;10.48;;;;;;;7.65;80.86;102926.19;6058525;19;20002;-74
2023/04/19 02:20:20;;;;;;;16.83;9.52;;;;;;;7.65;80.90;102926.19;6062025;19;20468;-75
2023/04/19 02:22:26;;;;;;;16.15;9.63;;;;;;;7.64;81.03;102929.69;6063218;19;20609;-75
2023/04/19 02:24:30;;;;;;;17.90;9.23;;;;;;;7.64;81.21;102927.94;6064098;19;20638;-77
2023/04/19 02:26:40;;;;;;;17.73;10.07;;;;;;;7.59;81.50;102934.00;6065766;19;20082;-74
2023/04/19 02:28:45;;;;;;;21.17;10.43;;;;;;;7.58;81.41;102930.53;6066709;19;20458;-75
2023/04/19 02:30:55;;;;;;;16.38;10.15;;;;;;;7.56;81.78;102937.47;6066795;19;20566;-76
2023/04/19 02:33:00;;;;;;;20.17;10.50;;;;;;;7.55;81.75;102938.31;6063928;19;20514;-76
2023/04/19 02:35:06;;;;;;;20.23;9.80;;;;;;;7.57;81.80;102938.34;6065790;19;20025;-76
2023/04/19 02:37:12;;;;;;;17.02;8.80;;;;;;;7.56;82.23;102936.59;6067229;19;20494;-75
2023/04/19 02:39:20;;;;;;;19.30;11.18;;;;;;;7.60;82.02;102938.34;6066483;19;20017;-77
2023/04/19 02:41:25;;;;;;;19.85;9.32;;;;;;;7.64;82.11;102935.78;6067465;19;20009;-76
2023/04/19 02:43:30;;;;;;;24.27;11.23;;;;;;;7.67;81.94;102930.56;6069011;19;20322;-75
2023/04/19 02:45:36;;;;;;;18.98;10.70;;;;;;;7.75;81.55;102937.56;6067505;19;20490;-75
2023/04/19 02:47:49;;;;;;;21.15;10.77;;;;;;;7.75;81.75;102933.22;6066014;19;20186;-75
2023/04/19 02:49:54;;;;;;;21.08;11.07;;;;;;;7.80;81.54;102936.72;6068404;19;20025;-76
2023/04/19 02:51:59;;;;;;;24.48;11.38;;;;;;;7.84;81.59;102935.84;6071753;19;20482;-76
2023/04/19 02:54:04;;;;;;;22.08;10.82;;;;;;;7.83;81.81;102936.72;6067211;19;20526;-75
2023/04/19 02:56:11;;;;;;;19.42;10.43;;;;;;;7.87;81.64;102933.28;6065226;19;20361;-77
2023/04/19 02:58:16;;;;;;;20.20;10.40;;;;;;;7.90;81.51;102928.06;6062863;19;20494;-74
2023/04/19 03:00:23;;;;;;;22.13;10.90;;;;;;;7.94;81.61;102938.53;6061605;19;20030;-75
2023/04/19 03:02:28;;;;;;;20.85;11.32;;;;;;;7.98;81.25;102935.94;6059083;19;20042;-77
2023/04/19 03:04:37;;;;;;;23.83;10.93;;;;;;;8.00;81.49;102934.19;6059533;19;20011;-74
2023/04/19 03:06:43;;;;;;;20.75;10.85;;;;;;;8.03;81.43;102934.22;6058623;19;20015;-75
2023/04/19 03:08:48;;;;;;;21.48;11.27;;;;;;;8.06;81.30;102941.22;6051755;19;20011;-76
2023/04/19 03:10:54;;;;;;;24.33;11.93;;;;;;;8.07;81.29;102935.09;6054705;19;20007;-74
2023/04/19 03:12:59;;;;;;;20.42;11.48;;;;;;;8.03;81.31;102939.44;6051801;19;20189;-76
2023/04/19 03:15:04;;;;;;;23.33;11.18;;;;;;;8.07;81.29;102940.31;6055313;19;20037;-76
2023/04/19 03:17:09;;;;;;;21.45;12.15;;;;;;;8.02;81.69;102936.81;6054072;19;20003;-76
2023/04/19 03:19:14;;;;;;;25.52;12.27;;;;;;;8.08;81.30;102937.72;6055587;19;20018;-75
2023/04/19 03:21:26;;;;;;;21.33;12.25;;;;;;;8.10;81.28;102929.84;6051558;19;20019;-75
2023/04/19 03:23:31;;;;;;;23.17;11.00;;;;;;;8.08;81.33;102928.97;6049394;19;20536;-75
2023/04/19 03:25:36;;;;;;;19.00;11.95;;;;;;;8.06;81.59;102930.72;6046086;19;20370;-76
2023/04/19 03:27:44;;;;;;;20.80;10.82;;;;;;;8.06;81.63;102931.59;6047661;19;20006;-76
2023/04/19 03:29:49;;;;;;;20.85;11.80;;;;;;;8.06;81.65;102928.97;6051800;19;20326;-76
2023/04/19 03:31:54;;;;;;;19.38;11.73;;;;;;;8.14;81.14;102927.25;6055443;19;20349;-76
2023/04/19 03:33:58;;;;;;;22.52;12.70;;;;;;;8.08;81.34;102928.97;6055016;19;20146;-76
2023/04/19 03:36:04;;;;;;;19.77;10.68;;;;;;;8.09;81.57;102926.38;6056158;19;20331;-76
2023/04/19 03:38:12;;;;;;;23.52;11.88;;;;;;;8.12;81.45;102929.00;6054152;19;20313;-75
2023/04/19 03:40:17;;;;;;;23.02;12.23;;;;;;;8.12;81.20;102920.28;6055919;19;20027;-75
2023/04/19 03:42:23;;;;;;;25.23;12.80;;;;;;;8.13;81.59;102924.63;6058558;19;20434;-75
2023/04/19 03:44:33;;;;;;;22.67;11.93;;;;;;;8.17;81.78;102925.53;6053602;19;20387;-77
2023/04/19 03:46:39;;;;;;;24.02;11.27;;;;;;;8.18;81.41;102928.13;6056696;19;20011;-74
2023/04/19 03:48:44;;;;;;;21.73;11.43;;;;;;;8.20;81.46;102925.53;6055014;19;20586;-74
2023/04/19 03:50:49;;;;;;;23.00;12.15;;;;;;;8.22;81.61;102923.78;6050030;19;20024;-76
2023/04/19 03:52:54;;;;;;;20.30;11.27;;;;;;;8.22;81.40;102918.56;6045997;19;20007;-74
2023/04/19 03:55:02;;;;;;;22.40;12.70;;;;;;;8.25;81.48;102924.66;6053280;19;20207;-76
2023/04/19 03:57:08;;;;;;;20.60;12.13;;;;;;;8.31;81.07;102919.44;6051761;19;20033;-74
2023/04/19 03:59:14;;;;;;;23.58;12.50;;;;;;;8.30;80.98;102917.69;6052895;19;20074;-74
2023/04/19 04:01:20;;;;;;;25.65;12.88;;;;;;;8.35;80.85;102921.19;6053949;19;20474;-75
2023/04/19 04:03:25;;;;;;;24.08;12.48;;;;;;;8.38;80.74;102922.09;6053434;19;20241;-76
2023/04/19 04:05:31;;;;;;;22.83;11.68;;;;;;;8.38;80.87;102922.97;6053806;19;20044;-74
2023/04/19 04:07:36;;;;;;;21.75;11.15;;;;;;;8.42;80.57;102923.84;6059959;19;20042;-74
2023/04/19 04:09:42;;;;;;;23.60;11.80;;;;;;;8.45;80.81;102921.25;6063934;19;20335;-74
2023/04/19 04:11:53;;;;;;;23.27;11.80;;;;;;;8.49;80.59;102917.78;6058083;19;20007;-74
2023/04/19 04:13:58;;;;;;;27.60;11.93;;;;;;;8.47;80.70;102915.13;6062373;19;20447;-74
2023/04/19 04:16:03;;;;;;;26.05;12.80;;;;;;;8.50;80.58;102919.50;6061506;19;20214;-74
2023/04/19 04:18:08;;;;;;;22.92;10.68;;;;;;;8.50;80.43;102925.59;6058744;19;20033;-74
2023/04/19 04:20:15;;;;;;;24.55;12.88;;;;;;;8.49;80.53;102923.00;6056987;19;20484;-74
2023/04/19 04:22:22;;;;;;;24.90;12.63;;;;;;;8.54;80.23;102921.28;6054311;19;20006;-74
2023/04/19 04:24:29;;;;;;;23.35;12.20;;;;;;;8.55;80.33;102923.00;6053934;19;20491;-75
2023/04/19 04:26:34;;;;;;;27.17;13.60;;;;;;;8.57;79.99;102937.00;6054330;19;20489;-74
2023/04/19 04:28:42;;;;;;;23.50;12.52;;;;;;;8.58;80.25;102928.25;6059247;19;20015;-74
2023/04/19 04:30:47;;;;;;;24.45;12.50;;;;;;;8.56;79.98;102932.63;6047212;19;20014;-73
2023/04/19 04:32:52;;;;;;;22.15;12.18;;;;;;;8.60;79.96;102934.38;6054915;19;20346;-74
2023/04/19 04:34:57;;;;;;;24.30;11.95;;;;;;;8.60;80.10;102941.38;6055352;19;20176;-74
2023/04/19 04:37:02;;;;;;;25.30;12.30;;;;;;;8.63;80.18;102937.00;6057212;19;20010;-76
2023/04/19 04:39:09;;;;;;;27.02;12.48;;;;;;;8.71;79.38;102939.63;6053712;19;20136;-76
2023/04/19 04:41:15;;;;;;;21.05;11.55;;;;;;;8.64;79.57;102933.50;6055413;19;20792;-76
2023/04/19 04:43:27;;;;;;;23.77;12.68;;;;;;;8.66;79.58;102936.13;6057756;19;20450;-75
2023/04/19 04:45:36;;;;;;;21.17;11.27;;;;;;;8.68;79.38;102935.25;6060718;19;20010;-75
2023/04/19 04:47:42;;;;;;;23.25;12.18;;;;;;;8.65;79.59;102935.25;6059367;19;20133;-76
2023/04/19 04:49:48;;;;;;;24.67;11.32;;;;;;;8.61;79.65;102933.53;6065370;19;20254;-75
2023/04/19 04:51:53;;;;;;;21.15;12.32;;;;;;;8.66;79.86;102942.25;6064332;19;20019;-73
2023/04/19 04:53:58;;;;;;;22.92;12.25;;;;;;;8.73;79.61;102941.38;6058211;19;20041;-74
2023/04/19 04:56:03;;;;;;;19.23;11.20;;;;;;;8.75;79.50;102952.75;6057061;19;20391;-76
2023/04/19 04:58:09;;;;;;;25.67;13.15;;;;;;;8.70;79.58;102954.47;6050260;19;20297;-75
2023/04/19 05:00:16;;;;;;;24.13;11.55;;;;;;;8.79;79.37;102945.75;6054504;19;20180;-75
2023/04/19 05:02:24;;;;;;;23.25;11.77;;;;;;;8.77;79.35;102951.00;6055575;19;20154;-75
2023/04/19 05:04:30;;;;;;;17.33;10.23;;;;;;;8.79;78.99;102946.66;6056293;19;20337;-75
2023/04/19 05:06:35;;;;;;;21.42;11.32;;;;;;;8.85;78.99;102952.75;6055241;19;20011;-75
2023/04/19 05:08:41;;;;;;;22.42;11.10;;;;;;;8.86;78.88;102944.00;6054976;19;20010;-76
2023/04/19 05:10:46;;;;;;;21.67;10.90;;;;;;;8.89;78.80;102944.88;6055767;19;20059;-75
2023/04/19 05:12:51;;;;;;;21.85;11.55;;;;;;;8.94;78.48;102944.88;6053807;19;20310;-75
2023/04/19 05:14:59;;;;;;;26.60;11.85;;;;;;;8.94;78.43;102945.75;6056818;19;20325;-75
2023/04/19 05:17:05;;;;;;;21.58;11.35;;;;;;;8.96;78.53;102953.63;6049157;19;20014;-74
2023/04/19 05:19:14;;;;;;;22.70;10.57;;;;;;;8.98;78.41;102941.41;6051703;19;20054;-75
2023/04/19 05:21:19;;;;;;;24.70;11.52;;;;;;;9.00;77.96;102935.28;6054222;19;20530;-76
2023/04/19 05:23:24;;;;;;;24.45;11.50;;;;;;;9.04;77.94;102938.78;6054098;19;20416;-74
2023/04/19 05:25:29;;;;;;;21.33;11.98;;;;;;;9.06;77.75;102947.53;6053836;19;20299;-74
2023/04/19 05:27:34;;;;;;;23.13;10.82;;;;;;;9.02;77.55;102948.38;6056040;19;20015;-76
2023/04/19 05:29:45;;;;;;;22.45;10.00;;;;;;;9.04;77.58;102937.91;6058767;19;20257;-74
2023/04/19 05:31:51;;;;;;;21.05;11.25;;;;;;;9.11;77.05;102939.63;6060958;19;20653;-74
2023/04/19 05:33:56;;;;;;;24.42;11.27;;;;;;;9.11;77.04;102951.00;6063384;19;20007;-75
2023/04/19 05:36:04;;;;;;;21.83;10.23;;;;;;;9.16;76.58;102949.28;6061634;19;20042;-74
2023/04/19 05:38:09;;;;;;;20.23;11.68;;;;;;;9.23;76.20;102945.75;6058705;19;20003;-75
2023/04/19 05:40:14;;;;;;;17.00;10.02;;;;;;;9.27;75.73;102954.50;6058579;19;20164;-75
2023/04/19 05:42:23;;;;;;;22.42;10.68;;;;;;;9.35;75.27;102959.75;6056888;19;20018;-75
2023/04/19 05:44:28;;;;;;;20.92;10.73;;;;;;;9.38;74.85;102959.72;6051200;19;20033;-74
2023/04/19 05:46:33;;;;;;;18.38;10.02;;;;;;;9.51;74.17;102950.97;6056795;19;20034;-74
2023/04/19 05:48:38;;;;;;;23.38;10.93;;;;;;;9.62;74.03;102958.81;6053773;19;20023;-76
2023/04/19 05:50:43;;;;;;;22.50;10.77;;;;;;;9.72;73.51;102957.03;6054450;19;20258;-74
2023/04/19 05:52:51;;;;;;;18.23;9.32;;;;;;;9.67;72.53;102955.28;6047638;19;20090;-76
2023/04/19 05:54:56;;;;;;;19.50;9.48;;;;;;;9.80;72.41;102956.13;6059437;19;20006;-77
2023/04/19 05:57:01;;;;;;;22.02;10.52;;;;;;;9.83;71.74;102960.50;6051119;19;20127;-75
2023/04/19 05:59:07;;;;;;;17.42;10.20;;;;;;;10.01;71.71;102963.06;6052131;19;20111;-74
2023/04/19 06:01:12;;;;;;;17.02;10.13;;;;;;;10.09;70.81;102968.28;6046019;19;20187;-75
2023/04/19 06:03:19;;;;;;;19.90;9.90;;;;;;;10.07;70.39;102968.28;6044910;19;20530;-75
2023/04/19 06:05:25;;;;;;;19.00;10.00;;;;;;;10.06;70.45;102971.78;6044307;19;20019;-77
2023/04/19 06:07:30;;;;;;;20.80;10.07;;;;;;;10.06;70.43;102965.66;6039232;19;20462;-77
2023/04/19 06:09:45;;;;;;;;;;;;;;;10.33;69.73;102964.69;6046022;19;20192;-74
2023/04/19 06:11:53;;;;;;;20.02;10.25;;;;;;;10.43;69.82;102963.75;6050562;19;19936;-74
2023/04/19 06:13:58;;;;;;;18.35;9.88;;;;;;;10.57;69.26;102965.44;6048459;19;20195;-75
2023/04/19 06:16:03;;;;;;;24.27;12.75;;;;;;;10.58;69.71;102965.41;6046308;19;20219;-76
2023/04/19 06:18:09;;;;;;;17.67;10.60;;;;;;;10.51;69.72;102963.72;6044045;19;20256;-74
2023/04/19 06:20:23;;;;;;;21.35;11.05;;;;;;;10.66;69.66;102965.34;6049186;19;20027;-76
2023/04/19 06:22:28;;;;;;;22.25;11.00;;;;;;;10.44;70.11;102965.50;6048059;19;20014;-75
2023/04/19 06:24:33;;;;;;;22.38;11.50;;;;;;;10.66;69.71;102971.47;6046884;19;20762;-75
2023/04/19 06:26:42;;;;;;;23.70;11.63;;;;;;;10.67;68.64;102970.59;6052664;19;20518;-74
2023/04/19 06:28:48;;;;;;;22.73;10.85;;;;;;;10.85;68.57;102966.97;6055547;19;20771;-74
2023/04/19 06:30:53;;;;;;;20.23;10.85;;;;;;;10.82;68.64;102974.00;6055881;19;20271;-74
2023/04/19 06:32:58;;;;;;;23.17;11.10;;;;;;;10.88;68.12;102974.84;6056750;19;20633;-76
2023/04/19 06:35:03;;;;;;;19.85;10.07;;;;;;;10.82;67.94;102974.91;6058131;19;20002;-77
2023/04/19 06:37:08;;;;;;;22.08;10.88;;;;;;;10.66;67.99;102973.22;6057462;19;20011;-74
2023/04/19 06:39:13;;;;;;;16.10;9.65;;;;;;;10.72;67.89;102975.84;6061608;19;20421;-77
2023/04/19 06:41:18;;;;;;;20.15;9.80;;;;;;;10.81;66.94;102980.16;6048323;19;20014;-76
2023/04/19 06:43:26;;;;;;;22.58;11.93;;;;;;;10.99;66.66;102969.50;6048001;19;20211;-76
2023/04/19 06:45:31;;;;;;;21.42;10.45;;;;;;;10.96;66.13;102965.13;6052837;19;20654;-75
2023/04/19 06:47:36;;;;;;;21.40;10.80;;;;;;;10.97;65.83;102972.13;6052606;19;20102;-76
2023/04/19 06:49:42;;;;;;;20.05;10.77;;;;;;;11.24;64.75;102967.50;6051058;19;20027;-76
2023/04/19 06:51:48;;;;;;;19.83;10.30;;;;;;;11.31;63.75;102965.72;6057236;19;20498;-75
2023/04/19 06:53:53;;;;;;;16.35;9.90;;;;;;;11.30;63.39;102967.47;6051788;19;20515;-75
2023/04/19 06:56:01;;;;;;;18.90;8.68;;;;;;;11.32;62.51;102965.72;6052312;19;20378;-75
2023/04/19 06:58:09;;;;;;;19.45;9.15;;;;;;;11.43;61.93;102966.47;6050081;19;20408;-75
2023/04/19 07:00:18;;;;;;;19.05;10.48;;;;;;;11.51;61.22;102966.38;6051750;19;20266;-75
2023/04/19 07:02:22;;;;;;;18.88;9.23;;;;;;;11.42;60.84;102961.19;6054120;19;20373;-74
2023/04/19 07:04:28;;;;;;;17.92;9.32;;;;;;;11.73;60.86;102972.28;6061928;19;20515;-73
2023/04/19 07:06:33;;;;;;;18.27;10.48;;;;;;;11.85;60.06;102966.88;6048397;19;20026;-75
2023/04/19 07:08:38;;;;;;;15.85;9.18;;;;;;;11.68;59.78;102974.09;6050104;19;20109;-75
2023/04/19 07:10:55;;;;;;;17.65;8.82;;;;;;;11.86;59.04;102963.38;6044183;19;20293;-75
2023/04/19 07:13:00;;;;;;;16.60;8.80;;;;;;;11.81;58.28;102964.31;6053929;19;20015;-75
2023/04/19 07:15:06;;;;;;;19.60;9.85;;;;;;;11.92;58.15;102972.09;6051386;19;20382;-75
2023/04/19 07:17:14;;;;;;;17.10;9.55;;;;;;;12.16;57.42;102963.03;6052326;19;20015;-75
2023/04/19 07:19:22;;;;;;;16.38;9.10;;;;;;;12.38;57.42;102963.63;6055400;19;20014;-75
2023/04/19 07:21:31;;;;;;;19.52;9.27;;;;;;;12.25;55.71;102961.16;6050897;19;20356;-75
2023/04/19 07:23:36;;;;;;;17.67;9.55;;;;;;;12.19;56.03;102963.88;6047495;19;20014;-75
2023/04/19 07:25:41;;;;;;;17.48;9.35;;;;;;;12.36;55.73;102955.72;6047932;19;20050;-75
2023/04/19 07:27:47;;;;;;;18.90;10.00;;;;;;;12.31;54.89;102965.44;6052655;19;20175;-74
2023/04/19 07:29:52;;;;;;;17.20;9.32;;;;;;;12.05;54.75;102963.16;6053948;19;20637;-75
2023/04/19 07:31:58;;;;;;;18.40;9.20;;;;;;;12.23;54.81;102973.47;6053644;19;20748;-77
2023/04/19 07:34:06;;;;;;;15.57;8.77;;;;;;;12.22;54.40;102969.09;6061275;19;20041;-75
2023/04/19 07:36:12;;;;;;;16.63;8.23;;;;;;;12.39;53.60;102974.13;6058181;19;20209;-75
2023/04/19 07:38:19;;;;;;;15.85;8.95;;;;;;;12.43;52.87;102969.69;6063046;19;20006;-77
2023/04/19 07:40:25;;;;;;;17.00;8.70;;;;;;;12.43;53.16;102969.69;6056969;19;20515;-77
2023/04/19 07:42:31;;;;;;;20.42;8.88;;;;;;;12.54;53.42;102953.72;6059747;19;20193;-76
2023/04/19 07:44:36;;;;;;;15.80;8.18;;;;;;;12.62;53.31;102959.75;6056759;19;20386;-76
2023/04/19 07:46:45;;;;;;;16.08;9.15;;;;;;;12.80;52.29;102959.47;6044461;19;20561;-73
2023/04/19 07:48:51;;;;;;;15.35;8.00;;;;;;;12.81;51.80;102953.28;6040166;19;20188;-73
2023/04/19 07:50:59;;;;;;;12.10;7.65;;;;;;;12.94;51.60;102952.19;6046221;19;20066;-75
2023/04/19 07:53:04;;;;;;;15.68;8.35;;;;;;;13.06;51.93;102950.22;6042547;19;20031;-75
2023/04/19 07:55:11;;;;;;;15.38;7.63;;;;;;;13.30;51.23;102949.84;6044637;19;20251;-75
2023/04/19 07:57:22;;;;;;;14.48;9.00;;;;;;;13.55;50.58;102958.16;6044883;19;20002;-76
2023/04/19 07:59:27;;;;;;;15.35;7.85;;;;;;;13.38;50.71;102958.50;6043649;19;20433;-75
2023/04/19 08:01:32;;;;;;;14.18;7.95;;;;;;;13.53;50.98;102953.81;6041011;19;20035;-74
2023/04/19 08:03:38;;;;;;;13.77;7.35;;;;;;;13.34;49.84;102953.28;6046128;19;20244;-75
2023/04/19 08:05:43;;;;;;;14.75;8.23;;;;;;;13.45;50.74;102946.03;6050253;19;20203;-74
2023/04/19 08:07:53;;;;;;;15.20;8.07;;;;;;;13.65;50.45;102945.66;6051414;19;20035;-74
2023/04/19 08:09:58;;;;;;;14.10;8.75;;;;;;;13.74;49.98;102947.25;6055173;19;20283;-75
2023/04/19 08:12:03;;;;;;;14.15;7.28;;;;;;;13.98;49.16;102956.44;6059062;19;20043;-75
2023/04/19 08:14:09;;;;;;;12.82;7.07;;;;;;;13.67;49.21;102948.28;6055853;19;20037;-76
2023/04/19 08:16:26;;;;;;;15.70;7.47;;;;;;;14.19;47.98;102947.19;6062391;19;20226;-75
2023/04/19 08:18:52;;;;;;;14.02;7.45;;;;;;;14.00;47.81;102944.06;6059685;19;20799;-75
2023/04/19 08:20:57;;;;;;;14.98;8.10;;;;;;;13.86;49.27;102944.38;6049965;19;20011;-74
2023/04/19 08:23:07;;;;;;;15.60;7.90;;;;;;;14.44;49.27;102943.09;6056806;19;20279;-77
2023/04/19 08:25:27;;;;;;;13.05;6.80;;;;;;;14.04;47.97;102936.03;6055757;19;20283;-74
2023/04/19 08:27:32;;;;;;;12.27;7.00;;;;;;;14.08;47.69;102939.47;6056282;19;20602;-75
2023/04/19 08:29:38;;;;;;;11.55;6.97;;;;;;;14.30;46.97;102936.34;6060002;19;20284;-76
2023/04/19 08:31:45;;;;;;;12.55;7.18;;;;;;;14.32;47.39;102940.72;6060873;19;20069;-76
2023/04/19 08:33:51;;;;;;;13.85;7.38;;;;;;;14.48;46.77;102944.78;6061497;19;20021;-75
2023/04/19 08:35:56;;;;;;;11.88;6.68;;;;;;;14.31;46.36;102946.91;6062044;19;20010;-75
2023/04/19 08:38:03;;;;;;;11.27;5.95;;;;;;;14.21;46.49;102934.81;6061683;19;20510;-75
2023/04/19 08:40:13;;;;;;;12.48;6.70;;;;;;;14.11;46.34;102941.19;6063163;19;20380;-76
2023/04/19 08:42:18;;;;;;;14.70;7.18;;;;;;;14.31;46.47;102932.81;6062191;19;20018;-77
2023/04/19 08:44:41;;;;;;;10.43;6.25;;;;;;;14.42;47.25;102936.94;6066985;19;20006;-78
2023/04/19 08:47:08;;;;;;;13.82;6.68;;;;;;;14.42;46.66;102939.59;6063549;19;20403;-76
2023/04/19 08:49:18;;;;;;;12.60;6.75;;;;;;;14.24;46.53;102932.06;6062433;19;20025;-75
2023/04/19 08:51:25;;;;;;;17.00;6.97;;;;;;;14.26;46.13;102944.38;6061071;19;20014;-75
2023/04/19 08:53:30;;;;;;;9.85;5.60;;;;;;;14.59;45.30;102938.38;6057606;19;20291;-75
2023/04/19 08:55:39;;;;;;;11.82;5.88;;;;;;;14.36;43.74;102931.81;6058717;19;20024;-75
2023/04/19 08:57:58;;;;;;;7.82;4.68;;;;;;;14.44;43.09;102943.09;6054353;19;20236;-75
2023/04/19 09:00:06;;;;;;;8.70;4.82;;;;;;;14.39;43.17;102934.38;6043178;19;20027;-75
2023/04/19 09:02:11;;;;;;;9.65;5.38;;;;;;;14.78;42.56;102926.44;6050211;19;20010;-77
2023/04/19 09:04:19;;;;;;;10.65;5.20;;;;;;;14.30;42.30;102936.34;6052753;19;20086;-78
2023/04/19 09:06:41;;;;;;;13.63;5.38;;;;;;;14.66;41.76;102929.38;6043795;19;20014;-78
2023/04/19 09:08:48;;;;;;;9.55;5.47;;;;;;;14.46;41.55;102930.69;6048407;19;20072;-78
2023/04/19 09:11:00;;;;;;;9.55;4.97;;;;;;;14.63;42.24;102932.97;6046240;19;20574;-75
2023/04/19 09:13:08;;;;;;;9.05;4.85;;;;;;;14.36;41.57;102923.00;6046998;19;20486;-76
2023/04/19 09:15:13;;;;;;;9.63;4.88;;;;;;;14.81;41.65;102928.13;6047664;19;20319;-75
2023/04/19 09:17:18;;;;;;;9.07;4.90;;;;;;;14.61;41.23;102923.31;6052803;19;20018;-78
2023/04/19 09:19:23;;;;;;;8.77;4.80;;;;;;;14.62;41.12;102928.59;6046277;19;20896;-77
2023/04/19 09:21:30;;;;;;;9.55;4.45;;;;;;;14.87;40.97;102915.59;6042942;19;20531;-78
2023/04/19 09:23:35;;;;;;;9.63;4.97;;;;;;;14.95;40.66;102925.13;6041982;19;20030;-76
2023/04/19 09:25:41;;;;;;;10.52;5.07;;;;;;;15.02;39.89;102918.78;6042312;19;20291;-76
2023/04/19 09:28:16;;;;;;;8.02;4.55;;;;;;;15.26;39.13;102911.97;6039666;19;20021;-73
2023/04/19 09:30:27;;;;;;;10.15;5.13;;;;;;;15.18;39.36;102914.81;6044690;19;20473;-76
2023/04/19 09:32:48;;;;;;;8.85;4.45;;;;;;;15.28;39.33;102912.81;6043243;19;20006;-77
2023/04/19 09:34:55;;;;;;;8.98;4.35;;;;;;;15.21;38.76;102904.13;6049252;19;20143;-75
2023/04/19 09:37:13;;;;;;;6.93;3.88;;;;;;;15.42;38.91;102915.94;6047711;19;20600;-75
2023/04/19 09:39:36;;;;;;;8.05;4.38;;;;;;;15.31;36.77;102904.75;6046406;19;20115;-76
2023/04/19 09:41:53;;;;;;;6.75;3.80;;;;;;;15.58;36.63;102913.72;6052842;19;20380;-75
2023/04/19 09:44:14;;;;;;;7.85;4.13;;;;;;;15.20;36.34;102907.72;6055429;19;20054;-76
2023/04/19 09:46:39;;;;;;;8.02;3.50;;;;;;;15.37;34.78;102905.44;6055847;19;20247;-76